This is the latest recevied weather packets stored in our database for station/object KA6AKH-13. If no packets are shown the sender has not sent any weather packets the latest 10 day(s).
| Time | Temp. | Humidity | Pressure | Rain* | Wind** | Luminosity | Snow |
|---|---|---|---|---|---|---|---|
| 1777615185 | 8.33° C | 79% | 1014.2 hPa | 0 mm | - | - | - |
| 1777613323 | 9.44° C | 74% | 1014.2 hPa | 0 mm | - | - | - |
| 1777612765 | 9.44° C | 74% | 1014.2 hPa | 0 mm | - | - | - |
| 1777612724 | 9.44° C | 74% | 1014.2 hPa | 0 mm | - | - | - |
| 1777612257 | 9.44° C | 73% | 1014.2 hPa | 0 mm | - | - | - |
| 1777612094 | 9.44° C | 73% | 1014.2 hPa | 0 mm | - | - | - |
| 1777610864 | 10.56° C | 70% | 1014.3 hPa | 0 mm | - | - | - |
| 1777610263 | 10.56° C | 69% | 1014.2 hPa | 0 mm | - | - | - |
| 1777609034 | 10.56° C | 69% | 1014 hPa | 0 mm | - | - | - |
| 1777608433 | 11.11° C | 68% | 1014 hPa | 0 mm | - | - | - |
| 1777607803 | 10.56° C | 68% | 1013.7 hPa | 0 mm | - | - | - |
| 1777607175 | 10.56° C | 70% | 1013.7 hPa | 0 mm | - | - | - |
| 1777606544 | 10.56° C | 71% | 1013.8 hPa | 0 mm | - | - | - |
| 1777605914 | 10.56° C | 69% | 1013.9 hPa | 0 mm | - | - | - |
| 1777605313 | 11.11° C | 69% | 1013.9 hPa | 0 mm | - | - | - |
| 1777604714 | 11.11° C | 68% | 1013.9 hPa | 0 mm | - | - | - |
| 1777604084 | 11.67° C | 67% | 1013.9 hPa | 0 mm | - | - | - |
| 1777601624 | 12.22° C | 65% | 1013.7 hPa | 0 mm | - | - | - |
| 1777599794 | 12.78° C | 63% | 1013.4 hPa | 0 mm | - | - | - |
| 1777598566 | 13.33° C | 60% | 1013.3 hPa | 0 mm | - | - | - |
| 1777597364 | 13.89° C | 58% | 1013 hPa | 0 mm | - | - | - |
| 1777595532 | 14.44° C | 57% | 1012.5 hPa | 0 mm | - | - | - |
| 1777594272 | 15° C | 55% | 1012 hPa | 0 mm | - | - | - |
| 1777593672 | 15.56° C | 55% | 1011.6 hPa | 0 mm | - | - | - |
| 1777593139 | 15.56° C | 54% | 1011.3 hPa | 0 mm | - | - | - |
* Rain latest hour (hover to see other rain measurements)
** Current wind speed in m/s (hover to see current wind gust speed)